Time;durP1;ratioP1;P1;durP2;ratioP2;P2;SDS_P1;SDS_P2;PMS_P1;PMS_P2;Temp;Humidity;BMP_temperature;BMP_pressure;BME280_temperature;BME280_humidity;BME280_pressure;Samples;Min_cycle;Max_cycle;Signal;HPM_P1;HPM_P2
2023/12/18 00:01:02;;;;;;;0.22;0.22;;;;;;;6.22;49.13;103132.81;4825268;29;20404;-92
2023/12/18 00:03:30;;;;;;;0.43;0.43;;;;;;;6.21;49.05;103130.25;4823747;29;20436;-92
2023/12/18 00:05:59;;;;;;;0.20;0.20;;;;;;;6.21;48.82;103135.53;4823356;29;20531;-89
2023/12/18 00:08:25;;;;;;;0.30;0.30;;;;;;;6.29;49.02;103134.19;4822985;29;20409;-91
2023/12/18 00:14:23;;;;;;;0.30;0.30;;;;;;;6.32;48.99;103126.13;4843130;29;20414;-93
2023/12/18 00:16:48;;;;;;;1.42;1.30;;;;;;;6.26;49.22;103126.44;4846561;29;20462;-92
2023/12/18 00:19:18;;;;;;;0.40;0.40;;;;;;;6.25;49.58;103121.28;4832390;29;20409;-91
2023/12/18 00:21:44;;;;;;;0.20;0.20;;;;;;;6.25;49.15;103122.13;4824427;29;20429;-91
2023/12/18 00:24:10;;;;;;;0.60;0.32;;;;;;;6.34;48.90;103112.88;4824048;29;20511;-92
2023/12/18 00:26:35;;;;;;;0.22;0.22;;;;;;;6.31;48.88;103119.16;4824274;29;20454;-91
2023/12/18 00:29:01;;;;;;;0.47;0.47;;;;;;;6.19;49.35;103125.06;4823661;29;20432;-91
2023/12/18 00:32:18;;;;;;;0.75;0.55;;;;;;;6.13;49.15;103118.34;4826129;29;20419;-91
2023/12/18 00:34:43;;;;;;;0.30;0.30;;;;;;;6.09;49.37;103108.91;4835023;29;20432;-91
2023/12/18 00:37:11;;;;;;;0.60;0.60;;;;;;;6.25;49.47;103118.66;4842416;29;20968;-91
2023/12/18 00:39:57;;;;;;;0.20;0.20;;;;;;;6.07;49.06;103104.69;4836974;29;20504;-94
2023/12/18 00:42:23;;;;;;;0.50;0.45;;;;;;;6.02;49.35;103104.91;4824692;29;20945;-95
2023/12/18 00:48:09;;;;;;;0.55;0.50;;;;;;;6.01;49.71;103094.44;4825719;29;20408;-94
2023/12/18 00:50:36;;;;;;;0.60;0.60;;;;;;;5.97;49.55;103100.81;4824989;29;20401;-95
2023/12/18 00:53:02;;;;;;;0.37;0.37;;;;;;;5.84;49.96;103096.16;4824823;29;20819;-94
2023/12/18 00:55:27;;;;;;;0.23;0.20;;;;;;;5.86;49.98;103098.72;4826861;29;20436;-95
2023/12/18 00:58:00;;;;;;;0.93;0.60;;;;;;;5.94;49.78;103102.66;4837275;29;20405;-96
2023/12/18 01:00:36;;;;;;;0.50;0.50;;;;;;;6.00;49.69;103092.78;4831432;29;20409;-94
2023/12/18 01:03:04;;;;;;;0.82;0.65;;;;;;;6.19;49.38;103098.72;4824656;29;20462;-91
2023/12/18 01:09:03;;;;;;;0.70;0.68;;;;;;;6.23;49.43;103076.59;4823890;29;20458;-89
2023/12/18 01:11:29;;;;;;;0.25;0.25;;;;;;;6.35;49.14;103087.38;4822702;29;20473;-90
2023/12/18 01:14:10;;;;;;;0.60;0.35;;;;;;;6.25;49.34;103061.53;4822462;29;20412;-92
2023/12/18 01:16:36;;;;;;;0.20;0.20;;;;;;;6.36;48.89;103066.22;4823750;29;20397;-94
2023/12/18 01:19:02;;;;;;;0.40;0.40;;;;;;;6.29;48.73;103059.59;4822954;29;20413;-92
2023/12/18 01:21:58;;;;;;;0.40;0.40;;;;;;;6.40;49.59;103056.38;4823877;29;21023;-91
2023/12/18 01:28:25;;;;;;;0.35;0.35;;;;;;;6.39;49.05;103046.75;4819591;29;20431;-92
2023/12/18 01:30:57;;;;;;;0.27;0.27;;;;;;;6.36;48.99;103029.34;4823098;29;20507;-91
2023/12/18 01:33:23;;;;;;;0.57;0.55;;;;;;;6.30;48.97;103037.56;4823238;29;20408;-92
2023/12/18 01:35:48;;;;;;;0.38;0.38;;;;;;;6.29;49.03;103026.19;4822777;29;20413;-92
2023/12/18 01:38:15;;;;;;;0.50;0.50;;;;;;;6.35;48.68;103027.63;4823193;29;20417;-92
2023/12/18 01:44:33;;;;;;;0.47;0.47;;;;;;;6.18;48.75;103030.38;4823710;29;20469;-92
2023/12/18 01:50:20;;;;;;;0.40;0.40;;;;;;;5.99;49.50;103023.44;4823306;29;20492;-93
2023/12/18 01:53:09;;;;;;;0.40;0.40;;;;;;;6.09;49.11;103032.56;4822834;29;20500;-91
2023/12/18 01:55:37;;;;;;;0.40;0.40;;;;;;;6.02;49.30;103028.56;4822040;29;20407;-92
2023/12/18 01:58:17;;;;;;;0.40;0.40;;;;;;;5.84;49.70;103030.34;4821806;29;20751;-91
2023/12/18 02:00:43;;;;;;;0.50;0.50;;;;;;;5.77;49.92;103034.25;4821767;29;20523;-91
2023/12/18 02:03:12;;;;;;;0.43;0.43;;;;;;;5.72;49.73;103028.38;4821903;29;20477;-90
2023/12/18 02:05:42;;;;;;;0.50;0.50;;;;;;;5.74;50.02;103030.00;4823647;29;20409;-92
2023/12/18 02:08:08;;;;;;;0.70;0.70;;;;;;;5.97;49.58;103032.38;4819979;29;20421;-92
2023/12/18 02:10:34;;;;;;;0.32;0.32;;;;;;;6.07;49.60;103026.53;4840660;29;20443;-90
2023/12/18 02:13:17;;;;;;;0.38;0.38;;;;;;;6.04;49.53;103028.47;4832293;29;20957;-93
2023/12/18 02:15:42;;;;;;;1.10;0.82;;;;;;;6.15;49.62;103015.56;4827294;29;20835;-92
2023/12/18 02:21:33;;;;;;;0.22;0.22;;;;;;;6.22;49.04;102997.66;4847624;29;20471;-93
2023/12/18 02:24:33;;;;;;;2.35;0.70;;;;;;;6.32;48.97;103002.31;4848909;29;20433;-95
2023/12/18 02:27:06;;;;;;;1.30;0.80;;;;;;;6.24;48.72;102995.78;4837921;29;20424;-94
2023/12/18 02:29:32;;;;;;;0.57;0.55;;;;;;;6.27;49.09;103009.63;4845078;29;20479;-94
2023/12/18 02:32:03;;;;;;;0.52;0.52;;;;;;;6.23;49.23;102997.56;4846504;29;20433;-93
2023/12/18 02:34:55;;;;;;;1.30;1.00;;;;;;;6.36;49.21;102999.53;4842422;29;20401;-95
2023/12/18 02:37:31;;;;;;;0.25;0.22;;;;;;;6.34;48.90;102990.81;4846509;29;20454;-91
2023/12/18 03:43:05;;;;;;;0.50;0.50;;;;;;;6.00;49.41;102963.75;4827893;29;20442;-93
2023/12/18 04:16:26;;;;;;;0.40;0.40;;;;;;;5.97;48.95;102948.13;4820847;29;20475;-88
2023/12/18 04:18:51;;;;;;;0.43;0.40;;;;;;;6.04;49.08;102955.59;4823253;29;20466;-88
2023/12/18 04:21:17;;;;;;;0.90;0.60;;;;;;;6.17;49.38;102957.53;4825203;29;20473;-89
2023/12/18 04:23:51;;;;;;;0.38;0.30;;;;;;;6.19;49.13;102958.31;4824730;29;20449;-89
2023/12/18 04:26:17;;;;;;;0.40;0.40;;;;;;;6.14;49.37;102953.31;4827222;29;20399;-90
2023/12/18 04:28:58;;;;;;;0.28;0.28;;;;;;;6.12;48.96;102939.34;4825481;29;20438;-93
2023/12/18 04:31:25;;;;;;;0.17;0.17;;;;;;;6.24;49.16;102951.00;4814869;29;20407;-92
2023/12/18 04:37:26;;;;;;;0.45;0.40;;;;;;;6.26;49.00;102952.59;4816217;29;20413;-93
2023/12/18 04:56:56;;;;;;;0.30;0.30;;;;;;;6.57;48.81;102956.16;4821978;29;20417;-92
2023/12/18 04:59:22;;;;;;;0.20;0.20;;;;;;;6.66;48.92;102970.56;4821760;29;20470;-90
2023/12/18 05:02:02;;;;;;;2.58;1.48;;;;;;;6.76;48.75;102962.97;4825344;29;20422;-91
2023/12/18 05:04:27;;;;;;;0.70;0.70;;;;;;;6.87;48.66;102961.41;4826546;29;20406;-90
2023/12/18 05:06:53;;;;;;;0.80;0.60;;;;;;;6.96;48.51;102969.72;4810746;29;20581;-91
2023/12/18 05:12:54;;;;;;;0.10;0.10;;;;;;;7.00;48.11;102966.78;4822894;29;20472;-88
2023/12/18 05:15:23;;;;;;;0.32;0.32;;;;;;;7.03;48.25;102968.41;4814778;29;20438;-91
2023/12/18 05:17:48;;;;;;;0.30;0.30;;;;;;;6.96;47.98;102962.66;4806309;29;20442;-91
2023/12/18 05:20:16;;;;;;;0.70;0.70;;;;;;;7.10;48.28;102966.28;4807370;29;20602;-89
2023/12/18 05:26:26;;;;;;;0.38;0.38;;;;;;;7.01;47.82;102965.03;4814584;29;20393;-93
2023/12/18 05:28:52;;;;;;;0.80;0.80;;;;;;;7.14;48.16;102962.50;4818505;29;20411;-94
2023/12/18 05:31:47;;;;;;;0.70;0.70;;;;;;;7.04;47.94;102960.41;4825037;29;20406;-94
2023/12/18 05:34:23;;;;;;;;;;;;;;;;;;;;;
2023/12/18 05:37:02;;;;;;;0.40;0.40;;;;;;;6.92;47.77;102947.13;4815063;29;20864;-93
2023/12/18 05:39:32;;;;;;;0.32;0.32;;;;;;;6.95;48.25;102950.41;4810460;29;20399;-93
2023/12/18 05:46:14;;;;;;;0.70;0.70;;;;;;;6.80;48.14;102940.75;4819328;29;20401;-96
2023/12/18 05:48:56;;;;;;;0.40;0.40;;;;;;;6.75;48.18;102940.19;4820245;29;20479;-94
2023/12/18 05:51:22;;;;;;;0.90;0.90;;;;;;;6.68;48.23;102942.31;4822378;29;20407;-95
2023/12/18 05:53:50;;;;;;;0.50;0.50;;;;;;;6.73;48.33;102931.53;4821839;29;20422;-93
2023/12/18 05:56:42;;;;;;;0.50;0.40;;;;;;;6.89;47.89;102945.50;4824205;29;20406;-95
2023/12/18 06:03:20;;;;;;;0.50;0.40;;;;;;;6.59;48.46;102942.84;4771216;30;20446;-94
2023/12/18 06:06:11;;;;;;;;;;;;;;;;;;;;;
2023/12/18 06:27:43;;;;;;;0.95;0.65;;;;;;;6.94;48.36;102935.53;4704023;30;20481;-94
2023/12/18 06:41:20;;;;;;;0.40;0.30;;;;;;;6.75;48.49;102935.75;5260610;24;20435;-93
2023/12/18 06:43:46;;;;;;;0.20;0.20;;;;;;;6.86;48.70;102935.13;4846008;29;20410;-93
2023/12/18 06:46:15;;;;;;;0.90;0.40;;;;;;;6.78;48.80;102935.56;4852276;29;20394;-92
2023/12/18 06:48:42;;;;;;;0.20;0.20;;;;;;;6.87;48.28;102921.00;4860105;29;20406;-93
2023/12/18 06:51:16;;;;;;;2.97;1.10;;;;;;;7.02;48.17;102941.19;4835572;29;20495;-93
2023/12/18 06:53:45;;;;;;;1.00;1.00;;;;;;;7.15;48.26;102933.41;4834434;29;20419;-94
2023/12/18 06:56:17;;;;;;;0.20;0.20;;;;;;;7.08;47.69;102934.72;4833851;29;20424;-92
2023/12/18 06:58:42;;;;;;;0.20;0.20;;;;;;;7.21;47.78;102932.16;4843826;29;20922;-90
2023/12/18 07:01:10;;;;;;;0.22;0.22;;;;;;;7.33;47.80;102933.19;4858182;29;20430;-89
2023/12/18 07:07:08;;;;;;;0.40;0.30;;;;;;;7.41;47.72;102934.44;4861476;29;20475;-94
2023/12/18 07:10:00;;;;;;;0.28;0.20;;;;;;;7.46;47.27;102928.88;4859916;29;20415;-93
2023/12/18 07:16:22;;;;;;;0.40;0.35;;;;;;;7.68;47.41;102922.25;4861255;29;20402;-92
2023/12/18 07:18:48;;;;;;;0.40;0.40;;;;;;;7.71;47.33;102917.63;4849092;29;20419;-92
2023/12/18 07:24:50;;;;;;;0.20;0.20;;;;;;;7.83;47.45;102924.78;4859864;29;20434;-90
2023/12/18 07:31:26;;;;;;;0.63;0.50;;;;;;;7.99;47.36;102924.63;4859682;29;20415;-91
2023/12/18 08:01:18;;;;;;;0.20;0.20;;;;;;;8.72;46.26;102901.44;4843281;29;20447;-89
2023/12/18 08:32:08;;;;;;;0.50;0.43;;;;;;;10.00;45.53;102903.91;4887742;29;20447;-93
2023/12/18 08:35:28;;;;;;;1.30;0.68;;;;;;;10.11;44.90;102903.94;4855190;29;20411;-91
2023/12/18 08:43:04;;;;;;;0.50;0.40;;;;;;;10.13;44.83;102901.19;4898783;23;20451;-89
2023/12/18 08:45:35;;;;;;;0.80;0.70;;;;;;;9.93;44.60;102890.25;4794772;29;22697;-89
2023/12/18 08:48:26;;;;;;;1.10;0.60;;;;;;;10.20;44.43;102901.59;4817344;29;20416;-94
2023/12/18 08:51:05;;;;;;;0.20;0.20;;;;;;;10.29;44.53;102893.78;4808248;29;20419;-91
2023/12/18 09:27:14;;;;;;;0.57;0.57;;;;;;;10.92;42.51;102876.75;4841914;29;20470;-85
2023/12/18 09:29:40;;;;;;;0.20;0.20;;;;;;;10.86;42.61;102870.13;4841250;29;20427;-88
2023/12/18 09:32:07;;;;;;;0.20;0.20;;;;;;;10.96;42.29;102864.94;4838627;29;20567;-85
2023/12/18 09:34:33;;;;;;;0.40;0.40;;;;;;;11.04;42.59;102867.84;4825539;29;20418;-86
2023/12/18 09:36:59;;;;;;;0.40;0.30;;;;;;;11.00;42.53;102861.94;4810929;29;20433;-88
2023/12/18 09:39:25;;;;;;;0.10;0.10;;;;;;;11.07;42.35;102864.91;4806672;29;20970;-85
2023/12/18 09:41:50;;;;;;;0.45;0.45;;;;;;;10.92;41.96;102851.06;4808713;29;20422;-86
2023/12/18 09:44:20;;;;;;;0.60;0.60;;;;;;;11.04;42.56;102857.22;4811677;29;20409;-85
2023/12/18 09:46:45;;;;;;;0.30;0.30;;;;;;;11.17;42.37;102852.63;4811363;29;20413;-86
2023/12/18 09:49:11;;;;;;;0.50;0.50;;;;;;;11.49;42.14;102857.19;4806911;29;20420;-90
2023/12/18 09:51:39;;;;;;;0.30;0.30;;;;;;;11.43;41.74;102847.91;4810448;29;20490;-87
2023/12/18 09:54:05;;;;;;;0.30;0.30;;;;;;;11.27;41.41;102850.94;4806328;29;20439;-90
2023/12/18 09:56:52;;;;;;;0.20;0.20;;;;;;;11.44;41.39;102838.94;4809192;29;20840;-90
2023/12/18 09:59:17;;;;;;;1.90;1.80;;;;;;;11.53;41.31;102833.88;4810289;29;20408;-88
2023/12/18 10:01:57;;;;;;;;;;;;;;;;;;;;;
2023/12/18 10:04:28;;;;;;;0.50;0.47;;;;;;;11.67;41.36;102830.94;4819607;29;20413;-87
2023/12/18 10:06:55;;;;;;;0.70;0.40;;;;;;;11.87;40.94;102808.06;4803739;29;20409;-88
2023/12/18 10:09:22;;;;;;;0.38;0.38;;;;;;;11.94;40.84;102800.41;4807654;29;20447;-90
2023/12/18 10:11:48;;;;;;;0.28;0.28;;;;;;;11.89;41.09;102802.63;4807630;29;20917;-89
2023/12/18 10:14:16;;;;;;;0.50;0.40;;;;;;;12.13;40.73;102789.94;4807647;29;20408;-87
2023/12/18 10:16:42;;;;;;;0.60;0.40;;;;;;;12.14;40.98;102788.97;4808418;29;20784;-88
2023/12/18 10:19:10;;;;;;;0.30;0.30;;;;;;;12.27;41.35;102791.44;4808308;29;20912;-88
2023/12/18 10:21:39;;;;;;;0.50;0.50;;;;;;;12.37;40.65;102780.84;4808496;29;20485;-92
2023/12/18 10:24:08;;;;;;;1.50;0.60;;;;;;;12.40;40.85;102781.44;4797707;29;20464;-90
2023/12/18 10:26:34;;;;;;;1.45;0.60;;;;;;;12.32;40.61;102780.44;4822827;29;20423;-87
2023/12/18 10:29:14;;;;;;;1.30;0.50;;;;;;;12.57;40.65;102776.50;4830730;29;20460;-90
2023/12/18 10:31:40;;;;;;;1.35;0.60;;;;;;;12.60;40.31;102769.09;4828333;29;20415;-87
2023/12/18 10:34:10;;;;;;;1.20;0.50;;;;;;;12.65;39.87;102765.19;4829701;29;20430;-88
2023/12/18 10:36:40;;;;;;;1.52;0.90;;;;;;;12.83;40.08;102771.56;4830766;29;20491;-90
2023/12/18 10:39:09;;;;;;;0.60;0.35;;;;;;;12.69;39.80;102753.31;4814415;29;20438;-85
2023/12/18 10:41:40;;;;;;;1.15;0.50;;;;;;;12.90;40.40;102761.25;4815868;29;20441;-87
2023/12/18 10:44:09;;;;;;;1.50;0.90;;;;;;;12.90;41.06;102761.25;4832208;29;20414;-87
2023/12/18 10:46:39;;;;;;;0.40;0.30;;;;;;;12.72;39.50;102747.72;4829710;29;20411;-89
2023/12/18 10:49:07;;;;;;;0.82;0.50;;;;;;;12.74;40.17;102749.25;4831287;29;20404;-89
2023/12/18 10:51:36;;;;;;;0.33;0.33;;;;;;;12.79;39.40;102740.88;4831418;29;20435;-90
2023/12/18 10:54:05;;;;;;;1.40;1.25;;;;;;;12.82;40.55;102735.31;4832468;29;20471;-91
2023/12/18 10:56:32;;;;;;;0.83;0.53;;;;;;;13.05;39.72;102738.56;4830747;29;20410;-91
2023/12/18 11:02:21;;;;;;;0.50;0.35;;;;;;;12.93;39.68;102732.53;4843597;29;20523;-89
2023/12/18 11:08:12;;;;;;;0.60;0.40;;;;;;;12.95;39.96;102730.56;4849344;29;20949;-88
2023/12/18 11:10:38;;;;;;;1.10;0.40;;;;;;;13.17;38.85;102716.16;4833948;29;20423;-90
2023/12/18 11:13:30;;;;;;;3.20;2.72;;;;;;;13.28;39.43;102706.38;4833278;29;20415;-90
2023/12/18 11:16:55;;;;;;;1.97;0.63;;;;;;;13.30;39.28;102712.41;4850709;29;20523;-93
2023/12/18 11:23:43;;;;;;;3.20;0.90;;;;;;;13.58;39.10;102705.44;4739857;30;20453;-93
2023/12/18 12:05:24;;;;;;;0.30;0.30;;;;;;;14.26;37.93;102643.97;4841283;29;20478;-89
2023/12/18 12:07:53;;;;;;;0.45;0.45;;;;;;;14.44;37.51;102644.03;4831697;29;20418;-90
2023/12/18 12:10:30;;;;;;;0.27;0.27;;;;;;;14.58;37.74;102628.53;4827228;29;20476;-89
2023/12/18 12:13:00;;;;;;;0.20;0.20;;;;;;;14.62;37.40;102638.78;4803699;29;20429;-90
2023/12/18 12:15:27;;;;;;;0.30;0.30;;;;;;;14.68;37.58;102630.16;4834893;29;20399;-90
2023/12/18 12:18:12;;;;;;;0.20;0.20;;;;;;;14.78;37.69;102632.75;4821340;29;20409;-91
2023/12/18 12:20:45;;;;;;;0.20;0.20;;;;;;;14.85;37.39;102627.66;4829842;29;20407;-91
2023/12/18 12:23:20;;;;;;;1.30;1.20;;;;;;;14.87;37.51;102623.00;4823885;29;20454;-92
2023/12/18 12:25:48;;;;;;;0.60;0.28;;;;;;;14.79;36.99;102613.06;4832134;29;20407;-91
2023/12/18 12:28:17;;;;;;;0.22;0.22;;;;;;;14.89;37.08;102602.31;4822154;29;20447;-91
2023/12/18 12:30:44;;;;;;;0.35;0.35;;;;;;;14.97;36.77;102593.56;4837023;29;20407;-91
2023/12/18 12:33:16;;;;;;;0.15;0.15;;;;;;;14.91;36.68;102585.16;4819990;29;20427;-92
2023/12/18 12:35:53;;;;;;;0.07;0.07;;;;;;;14.96;36.40;102590.03;4836512;29;20430;-92
2023/12/18 12:38:19;;;;;;;0.20;0.20;;;;;;;14.95;36.50;102579.53;4832751;29;20983;-90
2023/12/18 12:40:58;;;;;;;0.10;0.10;;;;;;;14.85;36.77;102579.59;4834362;29;20399;-91
2023/12/18 12:43:24;;;;;;;0.60;0.28;;;;;;;14.99;36.65;102575.56;4834831;29;20427;-92
2023/12/18 12:45:55;;;;;;;0.17;0.17;;;;;;;14.97;36.60;102588.22;4834970;29;20760;-91
2023/12/18 12:48:23;;;;;;;0.10;0.10;;;;;;;14.93;36.31;102584.16;4834637;29;20416;-90
2023/12/18 12:50:52;;;;;;;0.32;0.13;;;;;;;15.03;36.10;102566.22;4834934;29;20846;-91
2023/12/18 12:53:24;;;;;;;0.35;0.35;;;;;;;15.12;36.16;102573.31;4820956;29;20425;-91
2023/12/18 12:55:50;;;;;;;0.10;0.10;;;;;;;15.13;36.16;102571.50;4852719;29;20417;-91
2023/12/18 12:58:21;;;;;;;0.32;0.32;;;;;;;15.04;36.45;102567.91;4837591;29;20447;-91
2023/12/18 13:00:57;;;;;;;0.10;0.10;;;;;;;15.18;35.94;102577.19;4845019;29;20403;-94
2023/12/18 13:03:24;;;;;;;0.52;0.52;;;;;;;15.07;34.87;102570.25;4848371;29;20521;-90
2023/12/18 13:05:56;;;;;;;0.60;0.45;;;;;;;14.91;35.66;102569.16;4849081;29;20490;-91
2023/12/18 13:08:33;;;;;;;0.30;0.30;;;;;;;14.99;35.30;102567.53;4846054;29;20439;-90
2023/12/18 13:11:01;;;;;;;0.20;0.20;;;;;;;15.01;34.90;102568.22;4804519;29;20954;-89
2023/12/18 13:13:35;;;;;;;0.10;0.10;;;;;;;15.07;35.33;102572.94;4812080;29;20470;-90
2023/12/18 13:16:08;;;;;;;0.20;0.20;;;;;;;15.23;35.56;102572.22;4811617;29;20422;-89
2023/12/18 13:18:48;;;;;;;0.30;0.30;;;;;;;15.13;35.37;102558.97;4810800;29;20425;-90
2023/12/18 13:21:52;;;;;;;;;;;;;;;;;;;;;
2023/12/18 13:24:37;;;;;;;0.70;0.50;;;;;;;15.17;35.62;102556.84;4810154;29;20478;-89
2023/12/18 13:27:04;;;;;;;0.28;0.28;;;;;;;14.95;35.33;102561.66;4814355;29;20411;-89
2023/12/18 13:29:33;;;;;;;0.40;0.40;;;;;;;15.01;35.54;102555.69;4811726;29;20406;-92
2023/12/18 13:32:03;;;;;;;0.30;0.30;;;;;;;15.00;35.12;102559.38;4810830;29;20422;-91
2023/12/18 13:34:32;;;;;;;0.10;0.10;;;;;;;14.99;35.79;102568.38;4794895;29;20418;-92
2023/12/18 13:37:00;;;;;;;0.15;0.15;;;;;;;14.89;36.08;102560.44;4812977;29;20406;-89
2023/12/18 13:39:28;;;;;;;0.15;0.15;;;;;;;14.96;36.02;102559.81;4826082;29;20422;-87
2023/12/18 13:41:59;;;;;;;0.60;0.60;;;;;;;14.94;35.97;102561.81;4797893;29;20479;-90
2023/12/18 13:44:28;;;;;;;0.60;0.30;;;;;;;14.87;35.62;102565.09;4796364;29;20493;-91
2023/12/18 13:47:06;;;;;;;0.40;0.40;;;;;;;14.75;35.82;102560.97;4784280;29;20454;-87
2023/12/18 13:49:35;;;;;;;2.50;0.30;;;;;;;14.93;35.93;102563.66;4797501;29;20418;-90
2023/12/18 13:52:03;;;;;;;0.25;0.20;;;;;;;14.98;36.12;102569.38;4838472;29;20530;-88
2023/12/18 13:55:06;;;;;;;;;;;;;;;;;;;;;
2023/12/18 13:57:32;;;;;;;0.32;0.32;;;;;;;15.01;36.14;102566.38;4848897;29;20451;-87
2023/12/18 13:59:57;;;;;;;0.60;0.38;;;;;;;15.02;36.44;102564.56;4834027;29;20453;-89
2023/12/18 14:02:32;;;;;;;0.30;0.30;;;;;;;14.87;35.97;102558.91;4832004;29;20434;-90
2023/12/18 14:05:05;;;;;;;0.57;0.53;;;;;;;14.81;35.69;102571.03;4822491;29;20423;-90
2023/12/18 14:07:41;;;;;;;5.18;2.75;;;;;;;14.63;35.84;102562.19;4815969;29;20437;-92
2023/12/18 14:10:09;;;;;;;0.60;0.60;;;;;;;14.81;36.34;102563.03;4800336;29;20413;-86
2023/12/18 14:12:50;;;;;;;0.30;0.30;;;;;;;14.72;36.09;102547.94;4827714;29;20439;-85
2023/12/18 14:15:16;;;;;;;0.20;0.20;;;;;;;14.67;36.16;102555.56;4811892;29;20465;-86
2023/12/18 14:17:42;;;;;;;0.20;0.20;;;;;;;14.67;35.95;102550.22;4810580;29;20429;-85
2023/12/18 14:20:17;;;;;;;0.40;0.40;;;;;;;14.63;36.32;102555.03;4808892;29;20424;-86
2023/12/18 14:22:43;;;;;;;0.10;0.10;;;;;;;14.59;36.18;102563.50;4812574;29;20436;-84
2023/12/18 14:25:16;;;;;;;0.10;0.10;;;;;;;14.52;36.95;102549.88;4811607;29;20517;-85
2023/12/18 14:27:45;;;;;;;0.20;0.20;;;;;;;14.65;36.71;102555.69;4812169;29;20431;-85
2023/12/18 14:30:12;;;;;;;0.20;0.20;;;;;;;14.59;36.89;102545.66;4814188;29;20404;-85
2023/12/18 14:32:39;;;;;;;0.50;0.40;;;;;;;14.60;36.83;102552.63;4828821;29;20537;-85
2023/12/18 14:35:07;;;;;;;0.80;0.30;;;;;;;14.64;36.60;102547.84;4828422;29;20910;-85
2023/12/18 14:37:42;;;;;;;0.35;0.35;;;;;;;14.62;37.08;102552.50;4814062;29;20805;-84
2023/12/18 14:40:13;;;;;;;0.30;0.30;;;;;;;14.40;36.56;102545.75;4810507;29;20492;-85
2023/12/18 14:42:43;;;;;;;0.73;0.73;;;;;;;14.24;37.72;102557.06;4812938;29;20452;-87
2023/12/18 14:45:18;;;;;;;0.25;0.25;;;;;;;14.20;37.65;102553.84;4812308;29;20477;-86
2023/12/18 14:47:46;;;;;;;1.30;0.30;;;;;;;14.08;37.19;102560.38;4812546;29;20782;-88
2023/12/18 14:50:12;;;;;;;0.40;0.40;;;;;;;14.06;37.24;102573.88;4828364;29;20423;-85
2023/12/18 14:52:45;;;;;;;0.25;0.25;;;;;;;13.85;37.33;102567.94;4822470;29;20436;-85
2023/12/18 14:55:11;;;;;;;1.13;0.52;;;;;;;13.84;37.08;102566.22;4796551;29;20416;-86
2023/12/18 14:57:37;;;;;;;1.40;1.30;;;;;;;13.98;37.89;102570.25;4806198;29;20421;-86
2023/12/18 15:00:08;;;;;;;3.78;2.75;;;;;;;13.85;37.34;102575.91;4798047;29;20420;-91
2023/12/18 15:02:36;;;;;;;2.55;2.35;;;;;;;13.74;37.87;102566.28;4809852;29;20826;-87
2023/12/18 15:05:02;;;;;;;4.20;3.13;;;;;;;13.73;37.94;102564.59;4819817;29;20427;-84
2023/12/18 15:07:33;;;;;;;0.60;0.52;;;;;;;13.28;38.08;102565.22;4827084;29;20748;-84
2023/12/18 15:10:16;;;;;;;0.30;0.30;;;;;;;13.16;38.55;102557.41;4826869;29;20483;-84
2023/12/18 15:12:42;;;;;;;0.30;0.30;;;;;;;12.99;38.30;102550.09;4826532;29;20419;-84
2023/12/18 15:15:13;;;;;;;2.47;2.28;;;;;;;13.08;38.69;102561.75;4834529;29;20411;-89
2023/12/18 15:17:53;;;;;;;0.73;0.73;;;;;;;13.03;38.37;102566.63;4839451;29;20459;-90
2023/12/18 15:20:18;;;;;;;0.73;0.73;;;;;;;13.00;38.02;102570.44;4835035;29;20427;-91
2023/12/18 15:22:48;;;;;;;1.50;1.40;;;;;;;13.09;38.29;102574.06;4837309;29;20415;-90
2023/12/18 15:25:14;;;;;;;0.40;0.40;;;;;;;13.20;37.72;102576.59;4837072;29;20410;-90
2023/12/18 15:27:42;;;;;;;1.20;1.10;;;;;;;13.07;37.80;102578.69;4835690;29;20415;-90
2023/12/18 15:30:52;;;;;;;0.75;0.75;;;;;;;13.00;37.95;102581.91;4832420;29;20412;-90
2023/12/18 15:33:20;;;;;;;1.03;1.03;;;;;;;13.00;37.92;102562.44;4816907;29;20429;-90
2023/12/18 15:35:52;;;;;;;0.80;0.80;;;;;;;13.05;37.83;102577.97;4818421;29;20413;-90
2023/12/18 16:56:45;;;;;;;1.63;1.52;;;;;;;11.69;39.94;102581.94;507170;27;20738;-87
2023/12/18 16:59:11;;;;;;;0.60;0.60;;;;;;;11.60;39.64;102580.06;4823659;29;20439;-89
2023/12/18 17:02:35;;;;;;;0.82;0.82;;;;;;;11.54;39.93;102584.09;4830073;29;20453;-92
2023/12/18 17:05:01;;;;;;;0.57;0.57;;;;;;;11.53;39.80;102578.91;4806052;29;20431;-88
2023/12/18 17:07:26;;;;;;;0.50;0.50;;;;;;;11.40;40.11;102568.50;4807844;29;20481;-87
2023/12/18 17:09:52;;;;;;;0.20;0.20;;;;;;;11.53;40.24;102585.06;4807156;29;20501;-88
2023/12/18 17:12:18;;;;;;;0.57;0.57;;;;;;;11.35;40.02;102571.50;4808565;29;20401;-88
2023/12/18 17:14:47;;;;;;;0.60;0.60;;;;;;;11.40;40.00;102565.84;4808463;29;20484;-88
2023/12/18 17:17:15;;;;;;;0.70;0.70;;;;;;;11.18;40.15;102575.59;4809521;29;20405;-87
2023/12/18 17:19:40;;;;;;;0.30;0.30;;;;;;;11.21;40.56;102574.50;4810485;29;20429;-89
2023/12/18 17:22:10;;;;;;;0.30;0.30;;;;;;;11.08;40.50;102569.38;4799570;29;20461;-89
2023/12/18 17:24:40;;;;;;;1.02;0.93;;;;;;;11.03;40.72;102564.44;4794869;29;20908;-88
2023/12/18 17:27:08;;;;;;;0.40;0.40;;;;;;;11.16;40.60;102569.53;4808353;29;20420;-88
2023/12/18 17:29:34;;;;;;;0.50;0.50;;;;;;;11.08;40.25;102561.41;4808231;29;20445;-87
2023/12/18 17:32:00;;;;;;;0.30;0.30;;;;;;;11.11;40.84;102569.13;4806781;29;20503;-87
2023/12/18 17:34:25;;;;;;;0.80;0.73;;;;;;;11.02;40.33;102568.06;4808184;29;20405;-88
2023/12/18 17:36:51;;;;;;;0.40;0.40;;;;;;;10.99;40.37;102564.81;4808179;29;20415;-87
2023/12/18 17:42:59;;;;;;;1.63;1.38;;;;;;;10.96;40.27;102570.38;4825896;29;20429;-89
2023/12/18 17:45:25;;;;;;;4.03;2.63;;;;;;;11.00;40.40;102571.78;4827936;29;20415;-90
2023/12/18 17:47:51;;;;;;;1.87;1.27;;;;;;;10.89;40.41;102570.91;4830578;29;20429;-87
2023/12/18 17:50:17;;;;;;;2.10;2.00;;;;;;;10.84;40.33;102569.56;4811397;29;20434;-88
2023/12/18 17:52:50;;;;;;;1.55;1.20;;;;;;;10.77;40.38;102571.03;4818557;29;20419;-87
2023/12/18 17:55:16;;;;;;;1.25;1.15;;;;;;;10.81;40.88;102569.84;4825034;29;20405;-88
2023/12/18 17:57:47;;;;;;;0.50;0.50;;;;;;;10.70;40.41;102576.84;4826888;29;20427;-89
2023/12/18 18:00:13;;;;;;;1.30;1.20;;;;;;;10.75;40.46;102575.63;4829272;29;20442;-91
2023/12/18 18:02:39;;;;;;;0.30;0.30;;;;;;;10.60;40.60;102581.22;4813740;29;20478;-91
2023/12/18 18:05:21;;;;;;;0.30;0.30;;;;;;;10.50;40.74;102582.94;4814659;29;20425;-90
2023/12/18 18:07:47;;;;;;;0.43;0.43;;;;;;;10.42;41.66;102578.22;4830047;29;20414;-89
2023/12/18 18:10:13;;;;;;;0.57;0.57;;;;;;;10.61;40.96;102587.38;4822557;29;20437;-85
2023/12/18 18:12:40;;;;;;;0.60;0.60;;;;;;;10.55;40.71;102574.59;4815085;29;20441;-85
2023/12/18 18:15:06;;;;;;;1.03;0.80;;;;;;;10.51;40.74;102577.53;4816685;29;20409;-86
2023/12/18 18:17:37;;;;;;;0.40;0.30;;;;;;;10.52;40.95;102583.66;4812762;29;20416;-88
2023/12/18 18:20:04;;;;;;;0.30;0.30;;;;;;;10.53;40.99;102590.63;4812331;29;20889;-88
2023/12/18 18:25:53;;;;;;;0.20;0.20;;;;;;;10.50;41.15;102590.91;4828880;29;20465;-87
2023/12/18 18:28:21;;;;;;;0.38;0.38;;;;;;;10.47;40.91;102576.06;4812591;29;20416;-90
2023/12/18 18:30:50;;;;;;;0.60;0.47;;;;;;;10.46;40.92;102582.34;4811803;29;20475;-87
2023/12/18 18:40:21;;;;;;;0.80;0.80;;;;;;;10.36;40.88;102572.59;4736700;30;20412;-89
2023/12/18 18:42:47;;;;;;;0.97;0.87;;;;;;;10.17;41.23;102583.78;4720505;30;20822;-89
2023/12/18 18:45:13;;;;;;;0.77;0.57;;;;;;;10.25;40.98;102576.06;4798213;29;20409;-89
2023/12/18 18:47:43;;;;;;;0.70;0.70;;;;;;;10.36;41.40;102584.03;4810401;29;20443;-87
2023/12/18 18:53:34;;;;;;;0.30;0.30;;;;;;;10.37;41.10;102585.72;4826805;29;20533;-87
2023/12/18 18:56:05;;;;;;;0.60;0.60;;;;;;;10.41;41.01;102581.88;4810623;29;20432;-86
2023/12/18 18:58:43;;;;;;;2.57;0.97;;;;;;;10.48;41.07;102592.81;4809421;29;20480;-86
2023/12/18 19:01:09;;;;;;;0.52;0.52;;;;;;;10.40;41.15;102589.94;4808015;29;20434;-88
2023/12/18 19:03:34;;;;;;;1.48;1.30;;;;;;;10.45;40.72;102588.59;4808068;29;20791;-87
2023/12/18 19:09:22;;;;;;;1.30;1.00;;;;;;;10.29;41.30;102574.84;4810179;29;20422;-87
2023/12/18 19:11:48;;;;;;;1.15;1.05;;;;;;;10.26;40.91;102559.19;4814601;29;20408;-88
2023/12/18 19:14:13;;;;;;;1.80;1.00;;;;;;;10.38;40.87;102560.06;4817708;29;20481;-89
2023/12/18 19:16:47;;;;;;;1.10;1.10;;;;;;;10.35;40.85;102561.13;4824316;29;20432;-90